sensor_id;sensor_type;location;lat;lon;timestamp;pressure;altitude;pressure_sealevel;temperature;humidity
30073;BME280;16897;52.422;13.678;2023-01-26T00:03:55;102025.91;;;3.91;62.80
30073;BME280;16897;52.422;13.678;2023-01-26T00:07:57;102061.09;;;4.12;62.83
30073;BME280;16897;52.422;13.678;2023-01-26T00:12:02;101986.47;;;3.67;62.73
30073;BME280;16897;52.422;13.678;2023-01-26T00:16:07;101966.66;;;3.62;62.91
30073;BME280;16897;52.422;13.678;2023-01-26T00:20:09;101975.28;;;3.61;62.78
30073;BME280;16897;52.422;13.678;2023-01-26T00:24:11;102000.97;;;3.82;62.81
30073;BME280;16897;52.422;13.678;2023-01-26T00:28:12;101970.97;;;3.63;62.92
30073;BME280;16897;52.422;13.678;2023-01-26T00:32:13;101956.41;;;3.52;62.86
30073;BME280;16897;52.422;13.678;2023-01-26T00:36:16;102000.16;;;3.77;62.79
30073;BME280;16897;52.422;13.678;2023-01-26T00:40:17;101958.09;;;3.60;62.81
30073;BME280;16897;52.422;13.678;2023-01-26T00:44:19;101954.69;;;3.51;62.79
30073;BME280;16897;52.422;13.678;2023-01-26T00:48:23;101956.38;;;3.55;62.72
30073;BME280;16897;52.422;13.678;2023-01-26T00:52:25;102042.16;;;4.07;62.81
30073;BME280;16897;52.422;13.678;2023-01-26T00:56:27;101912.63;;;3.32;62.84
30073;BME280;16897;52.422;13.678;2023-01-26T01:00:37;101920.34;;;3.37;62.84
30073;BME280;16897;52.422;13.678;2023-01-26T01:04:39;101994.13;;;3.78;62.88
30073;BME280;16897;52.422;13.678;2023-01-26T01:08:41;102008.75;;;3.79;62.85
30073;BME280;16897;52.422;13.678;2023-01-26T01:12:45;102002.75;;;3.74;62.81
30073;BME280;16897;52.422;13.678;2023-01-26T01:16:49;101921.22;;;3.35;62.63
30073;BME280;16897;52.422;13.678;2023-01-26T01:20:51;101926.38;;;3.38;62.71
30073;BME280;16897;52.422;13.678;2023-01-26T01:24:52;101946.09;;;3.49;62.81
30073;BME280;16897;52.422;13.678;2023-01-26T01:28:54;101943.53;;;3.46;62.86
30073;BME280;16897;52.422;13.678;2023-01-26T01:32:56;101950.41;;;3.47;62.83
30073;BME280;16897;52.422;13.678;2023-01-26T01:37:00;101932.34;;;3.49;62.89
30073;BME280;16897;52.422;13.678;2023-01-26T01:41:02;101926.28;;;3.50;62.84
30073;BME280;16897;52.422;13.678;2023-01-26T01:53:37;101915.94;;;3.53;62.98
30073;BME280;16897;52.422;13.678;2023-01-26T01:57:42;101870.44;;;3.32;62.80
30073;BME280;16897;52.422;13.678;2023-01-26T02:01:48;101963.09;;;3.84;62.96
30073;BME280;16897;52.422;13.678;2023-01-26T02:06:09;101979.34;;;4.00;62.97
30073;BME280;16897;52.422;13.678;2023-01-26T02:10:17;101902.16;;;3.55;62.90
30073;BME280;16897;52.422;13.678;2023-01-26T02:14:22;101896.13;;;3.55;62.79
30073;BME280;16897;52.422;13.678;2023-01-26T02:18:25;101908.94;;;3.69;62.88
30073;BME280;16897;52.422;13.678;2023-01-26T02:22:39;101952.59;;;3.99;62.92
30073;BME280;16897;52.422;13.678;2023-01-26T02:26:43;101877.19;;;3.54;62.95
30073;BME280;16897;52.422;13.678;2023-01-26T02:30:44;101911.41;;;3.84;62.71
30073;BME280;16897;52.422;13.678;2023-01-26T02:34:46;101842.84;;;3.40;62.75
30073;BME280;16897;52.422;13.678;2023-01-26T02:39:01;101870.25;;;3.61;62.84
30073;BME280;16897;52.422;13.678;2023-01-26T02:43:04;101851.34;;;3.56;62.67
30073;BME280;16897;52.422;13.678;2023-01-26T02:47:11;101848.78;;;3.53;63.01
30073;BME280;16897;52.422;13.678;2023-01-26T02:51:14;101841.94;;;3.50;62.86
30073;BME280;16897;52.422;13.678;2023-01-26T02:55:17;101839.31;;;3.55;62.91
30073;BME280;16897;52.422;13.678;2023-01-26T02:59:28;101871.00;;;3.74;62.87
30073;BME280;16897;52.422;13.678;2023-01-26T03:03:30;101838.47;;;3.54;62.95
30073;BME280;16897;52.422;13.678;2023-01-26T03:07:45;101842.72;;;3.59;62.93
30073;BME280;16897;52.422;13.678;2023-01-26T03:11:47;101836.72;;;3.53;62.99
30073;BME280;16897;52.422;13.678;2023-01-26T03:15:51;101823.03;;;3.45;62.80
30073;BME280;16897;52.422;13.678;2023-01-26T03:19:57;101893.34;;;3.81;62.88
30073;BME280;16897;52.422;13.678;2023-01-26T03:24:17;101899.34;;;3.86;62.97
30073;BME280;16897;52.422;13.678;2023-01-26T03:28:40;101814.50;;;3.37;62.69
30073;BME280;16897;52.422;13.678;2023-01-26T03:32:41;101893.31;;;3.84;62.94
30073;BME280;16897;52.422;13.678;2023-01-26T03:36:47;101858.16;;;3.68;62.84
30073;BME280;16897;52.422;13.678;2023-01-26T03:40:49;101834.22;;;3.49;62.93
30073;BME280;16897;52.422;13.678;2023-01-26T03:45:10;101837.59;;;3.55;62.80
30073;BME280;16897;52.422;13.678;2023-01-26T03:49:32;101827.31;;;3.49;62.98
30073;BME280;16897;52.422;13.678;2023-01-26T03:53:52;101799.84;;;3.39;62.96
30073;BME280;16897;52.422;13.678;2023-01-26T03:58:12;101822.97;;;3.53;62.86
30073;BME280;16897;52.422;13.678;2023-01-26T04:02:14;101829.84;;;3.55;62.80
30073;BME280;16897;52.422;13.678;2023-01-26T04:06:36;101870.06;;;3.84;62.72
30073;BME280;16897;52.422;13.678;2023-01-26T04:10:57;101867.56;;;3.78;63.02
30073;BME280;16897;52.422;13.678;2023-01-26T04:15:00;101823.81;;;3.53;62.80
30073;BME280;16897;52.422;13.678;2023-01-26T04:19:20;101906.94;;;4.02;62.98
30073;BME280;16897;52.422;13.678;2023-01-26T04:23:41;101809.28;;;3.46;62.96
30073;BME280;16897;52.422;13.678;2023-01-26T04:27:43;101876.00;;;3.94;62.96
30073;BME280;16897;52.422;13.678;2023-01-26T04:31:48;101811.72;;;3.59;62.79
30073;BME280;16897;52.422;13.678;2023-01-26T04:35:53;101811.72;;;3.59;62.93
30073;BME280;16897;52.422;13.678;2023-01-26T04:39:55;101803.06;;;3.64;62.84
30073;BME280;16897;52.422;13.678;2023-01-26T04:43:57;101795.38;;;3.60;63.06
30073;BME280;16897;52.422;13.678;2023-01-26T04:47:59;101810.88;;;3.60;62.95
30073;BME280;16897;52.422;13.678;2023-01-26T04:52:01;101759.44;;;3.35;62.77
30073;BME280;16897;52.422;13.678;2023-01-26T04:56:07;101860.53;;;3.92;62.70
30073;BME280;16897;52.422;13.678;2023-01-26T05:00:10;101757.72;;;3.36;62.71
30073;BME280;16897;52.422;13.678;2023-01-26T05:04:12;101787.66;;;3.53;62.84
30073;BME280;16897;52.422;13.678;2023-01-26T05:08:17;101776.50;;;3.53;62.96
30073;BME280;16897;52.422;13.678;2023-01-26T05:12:19;101798.75;;;3.68;62.90
30073;BME280;16897;52.422;13.678;2023-01-26T05:17:18;101789.34;;;3.61;62.98
30073;BME280;16897;52.422;13.678;2023-01-26T05:21:29;101797.09;;;3.59;62.97
30073;BME280;16897;52.422;13.678;2023-01-26T05:25:33;101772.28;;;3.43;62.88
30073;BME280;16897;52.422;13.678;2023-01-26T05:29:42;101789.41;;;3.53;63.06
30073;BME280;16897;52.422;13.678;2023-01-26T05:33:44;101797.09;;;3.61;62.95
30073;BME280;16897;52.422;13.678;2023-01-26T05:37:48;101785.94;;;3.57;62.86
30073;BME280;16897;52.422;13.678;2023-01-26T05:41:50;101786.81;;;3.53;63.01
30073;BME280;16897;52.422;13.678;2023-01-26T05:45:52;101769.69;;;3.43;62.74
30073;BME280;16897;52.422;13.678;2023-01-26T05:49:57;101782.53;;;3.50;63.01
30073;BME280;16897;52.422;13.678;2023-01-26T05:54:05;101749.13;;;3.32;62.80
30073;BME280;16897;52.422;13.678;2023-01-26T05:58:07;101825.22;;;3.88;62.90
30073;BME280;16897;52.422;13.678;2023-01-26T06:02:12;101821.81;;;3.88;62.83
30073;BME280;16897;52.422;13.678;2023-01-26T06:06:17;101788.38;;;3.71;63.02
30073;BME280;16897;52.422;13.678;2023-01-26T06:10:26;101847.53;;;3.98;62.84
30073;BME280;16897;52.422;13.678;2023-01-26T06:14:37;101757.66;;;3.43;62.90
30073;BME280;16897;52.422;13.678;2023-01-26T06:18:41;101780.81;;;3.54;62.81
30073;BME280;16897;52.422;13.678;2023-01-26T06:22:43;101770.56;;;3.43;63.08
30073;BME280;16897;52.422;13.678;2023-01-26T06:26:48;101791.09;;;3.55;62.81
30073;BME280;16897;52.422;13.678;2023-01-26T06:30:51;101789.50;;;3.44;63.02
30073;BME280;16897;52.422;13.678;2023-01-26T06:34:54;101831.38;;;3.78;62.92
30073;BME280;16897;52.422;13.678;2023-01-26T06:38:58;101797.13;;;3.56;62.80
30073;BME280;16897;52.422;13.678;2023-01-26T06:42:59;101788.59;;;3.49;62.98
30073;BME280;16897;52.422;13.678;2023-01-26T06:47:01;101787.78;;;3.41;62.93
30073;BME280;16897;52.422;13.678;2023-01-26T06:51:35;101878.66;;;3.89;62.98
30073;BME280;16897;52.422;13.678;2023-01-26T06:55:39;101780.97;;;3.34;62.88
30073;BME280;16897;52.422;13.678;2023-01-26T07:00:01;101782.69;;;3.33;62.88
30073;BME280;16897;52.422;13.678;2023-01-26T07:04:24;101790.41;;;3.38;62.97
30073;BME280;16897;52.422;13.678;2023-01-26T07:08:44;101795.50;;;3.43;62.68
30073;BME280;16897;52.422;13.678;2023-01-26T07:12:46;101793.84;;;3.37;62.97
30073;BME280;16897;52.422;13.678;2023-01-26T07:16:48;101796.38;;;3.40;62.89
30073;BME280;16897;52.422;13.678;2023-01-26T07:20:49;101793.84;;;3.37;62.88
30073;BME280;16897;52.422;13.678;2023-01-26T07:24:50;101888.19;;;3.80;62.82
30073;BME280;16897;52.422;13.678;2023-01-26T07:28:52;101784.44;;;3.28;62.76
30073;BME280;16897;52.422;13.678;2023-01-26T07:32:53;101788.78;;;3.25;62.79
30073;BME280;16897;52.422;13.678;2023-01-26T07:36:55;101781.91;;;3.25;62.93
30073;BME280;16897;52.422;13.678;2023-01-26T07:40:56;101784.47;;;3.24;62.87
30073;BME280;16897;52.422;13.678;2023-01-26T07:45:01;101760.47;;;3.13;62.88
30073;BME280;16897;52.422;13.678;2023-01-26T07:49:02;101787.91;;;3.26;62.98
30073;BME280;16897;52.422;13.678;2023-01-26T07:53:04;101751.06;;;3.07;62.88
30073;BME280;16897;52.422;13.678;2023-01-26T07:57:05;101796.44;;;3.34;62.95
30073;BME280;16897;52.422;13.678;2023-01-26T08:01:12;101795.59;;;3.35;62.80
30073;BME280;16897;52.422;13.678;2023-01-26T08:05:14;101787.88;;;3.29;62.94
30073;BME280;16897;52.422;13.678;2023-01-26T08:09:16;101854.72;;;3.67;62.92
30073;BME280;16897;52.422;13.678;2023-01-26T08:13:17;101775.84;;;3.26;62.84
30073;BME280;16897;52.422;13.678;2023-01-26T08:17:19;101791.25;;;3.39;62.91
30073;BME280;16897;52.422;13.678;2023-01-26T08:21:33;101801.56;;;3.40;62.79
30073;BME280;16897;52.422;13.678;2023-01-26T08:29:55;101813.63;;;3.38;62.84
30073;BME280;16897;52.422;13.678;2023-01-26T08:33:57;101804.97;;;3.42;62.76
30073;BME280;16897;52.422;13.678;2023-01-26T08:37:58;101795.59;;;3.32;62.85
30073;BME280;16897;52.422;13.678;2023-01-26T08:42:00;101783.59;;;3.26;62.75
30073;BME280;16897;52.422;13.678;2023-01-26T08:46:02;101802.50;;;3.33;62.67
30073;BME280;16897;52.422;13.678;2023-01-26T08:50:04;101775.06;;;3.20;62.75
30073;BME280;16897;52.422;13.678;2023-01-26T08:54:06;101779.34;;;3.22;62.91
30073;BME280;16897;52.422;13.678;2023-01-26T08:58:11;101784.44;;;3.28;62.81
30073;BME280;16897;52.422;13.678;2023-01-26T09:02:12;101783.59;;;3.28;62.94
30073;BME280;16897;52.422;13.678;2023-01-26T09:06:17;101811.03;;;3.41;62.83
30073;BME280;16897;52.422;13.678;2023-01-26T09:10:19;101805.06;;;3.31;62.97
30073;BME280;16897;52.422;13.678;2023-01-26T09:14:20;101807.63;;;3.36;63.02
30073;BME280;16897;52.422;13.678;2023-01-26T09:18:23;101811.09;;;3.35;62.93
30073;BME280;16897;52.422;13.678;2023-01-26T09:22:27;101785.34;;;3.21;62.87
30073;BME280;16897;52.422;13.678;2023-01-26T09:26:47;101888.22;;;3.78;63.06
30073;BME280;16897;52.422;13.678;2023-01-26T09:30:48;101794.00;;;3.19;62.73
30073;BME280;16897;52.422;13.678;2023-01-26T09:34:50;101820.59;;;3.30;62.69
30073;BME280;16897;52.422;13.678;2023-01-26T09:39:04;101818.03;;;3.27;62.77
30073;BME280;16897;52.422;13.678;2023-01-26T09:52:45;101835.19;;;3.32;62.74
30073;BME280;16897;52.422;13.678;2023-01-26T09:56:53;101785.47;;;3.04;62.85
30073;BME280;16897;52.422;13.678;2023-01-26T10:15:18;101782.81;;;3.17;62.75
30073;BME280;16897;52.422;13.678;2023-01-26T10:35:19;101785.34;;;3.24;62.77
30073;BME280;16897;52.422;13.678;2023-01-26T10:44:33;101825.63;;;3.42;62.90
30073;BME280;16897;52.422;13.678;2023-01-26T10:53:40;101755.41;;;3.03;62.69
30073;BME280;16897;52.422;13.678;2023-01-26T11:02:33;101821.28;;;3.52;62.74
30073;BME280;16897;52.422;13.678;2023-01-26T11:11:26;101781.03;;;3.29;62.82
30073;BME280;16897;52.422;13.678;2023-01-26T11:20:50;101792.03;;;3.45;62.82
30073;BME280;16897;52.422;13.678;2023-01-26T11:33:48;101812.59;;;3.61;62.82
30073;BME280;16897;52.422;13.678;2023-01-26T11:38:29;101741.47;;;3.24;63.03
30073;BME280;16897;52.422;13.678;2023-01-26T11:47:50;101805.78;;;3.52;62.87
30073;BME280;16897;52.422;13.678;2023-01-26T11:56:48;101723.53;;;3.09;62.89
30073;BME280;16897;52.422;13.678;2023-01-26T12:01:00;101753.50;;;3.27;62.79
30073;BME280;16897;52.422;13.678;2023-01-26T12:05:19;101783.38;;;3.51;62.97
30073;BME280;16897;52.422;13.678;2023-01-26T12:09:26;101772.22;;;3.52;62.67
30073;BME280;16897;52.422;13.678;2023-01-26T12:13:39;101690.00;;;3.04;62.80
30073;BME280;16897;52.422;13.678;2023-01-26T12:18:05;101684.00;;;3.05;62.80
30073;BME280;16897;52.422;13.678;2023-01-26T12:22:36;101682.28;;;3.04;62.99
30073;BME280;16897;52.422;13.678;2023-01-26T12:26:44;101683.97;;;3.08;62.92
30073;BME280;16897;52.422;13.678;2023-01-26T12:31:39;101651.47;;;2.87;62.86
30073;BME280;16897;52.422;13.678;2023-01-26T12:46:23;101745.50;;;3.53;62.84
30073;BME280;16897;52.422;13.678;2023-01-26T13:11:03;101709.41;;;3.48;62.89
30073;BME280;16897;52.422;13.678;2023-01-26T13:15:30;101741.09;;;3.66;62.84
30073;BME280;16897;52.422;13.678;2023-01-26T13:23:55;101685.56;;;3.20;62.90
30073;BME280;16897;52.422;13.678;2023-01-26T13:28:19;101723.19;;;3.49;62.80
30073;BME280;16897;52.422;13.678;2023-01-26T13:36:36;101652.94;;;3.13;62.77
30073;BME280;16897;52.422;13.678;2023-01-26T13:40:46;101688.13;;;3.25;62.80
30073;BME280;16897;52.422;13.678;2023-01-26T13:44:56;101692.44;;;3.24;62.88
30073;BME280;16897;52.422;13.678;2023-01-26T13:49:39;101760.81;;;3.70;62.80
30073;BME280;16897;52.422;13.678;2023-01-26T13:58:52;101742.16;;;3.40;62.84
30073;BME280;16897;52.422;13.678;2023-01-26T14:02:54;101687.38;;;3.12;62.86
30073;BME280;16897;52.422;13.678;2023-01-26T14:11:15;101700.25;;;3.17;62.90
30073;BME280;16897;52.422;13.678;2023-01-26T14:19:23;101735.34;;;3.36;62.67
30073;BME280;16897;52.422;13.678;2023-01-26T14:23:27;101745.66;;;3.38;62.66
30073;BME280;16897;52.422;13.678;2023-01-26T14:27:40;101706.22;;;3.22;62.72
30073;BME280;16897;52.422;13.678;2023-01-26T14:31:42;101676.31;;;2.98;62.68
30073;BME280;16897;52.422;13.678;2023-01-26T14:35:55;101692.50;;;3.15;62.87
30073;BME280;16897;52.422;13.678;2023-01-26T14:40:19;101689.94;;;3.12;62.85
30073;BME280;16897;52.422;13.678;2023-01-26T14:44:21;101704.56;;;3.13;62.93
30073;BME280;16897;52.422;13.678;2023-01-26T14:48:25;101698.53;;;3.14;62.90
30073;BME280;16897;52.422;13.678;2023-01-26T14:52:29;101657.47;;;2.88;62.83
30073;BME280;16897;52.422;13.678;2023-01-26T14:56:38;101749.94;;;3.37;62.72
30073;BME280;16897;52.422;13.678;2023-01-26T15:00:41;101705.44;;;3.10;62.61
30073;BME280;16897;52.422;13.678;2023-01-26T15:04:54;101726.91;;;3.19;62.87
30073;BME280;16897;52.422;13.678;2023-01-26T15:09:03;101682.38;;;2.95;62.70
30073;BME280;16897;52.422;13.678;2023-01-26T15:17:36;101779.84;;;3.61;62.79
30073;BME280;16897;52.422;13.678;2023-01-26T15:21:38;101665.22;;;2.88;62.78
30073;BME280;16897;52.422;13.678;2023-01-26T15:25:40;101694.28;;;3.07;62.89
30073;BME280;16897;52.422;13.678;2023-01-26T15:29:44;101702.81;;;3.17;62.68
30073;BME280;16897;52.422;13.678;2023-01-26T15:37:48;101654.03;;;2.87;62.57
30073;BME280;16897;52.422;13.678;2023-01-26T15:46:02;101707.19;;;3.08;62.85
30073;BME280;16897;52.422;13.678;2023-01-26T15:50:04;101781.66;;;3.53;62.64
30073;BME280;16897;52.422;13.678;2023-01-26T15:54:05;101702.91;;;3.04;62.77
30073;BME280;16897;52.422;13.678;2023-01-26T16:03:22;101781.69;;;3.50;62.91
30073;BME280;16897;52.422;13.678;2023-01-26T16:07:24;101781.69;;;3.50;62.90
30073;BME280;16897;52.422;13.678;2023-01-26T16:11:29;101785.13;;;3.50;62.75
30073;BME280;16897;52.422;13.678;2023-01-26T16:15:42;101790.28;;;3.52;62.80
30073;BME280;16897;52.422;13.678;2023-01-26T16:19:46;101721.81;;;3.06;62.55
30073;BME280;16897;52.422;13.678;2023-01-26T16:23:48;101719.25;;;3.08;62.74
30073;BME280;16897;52.422;13.678;2023-01-26T16:27:50;101714.09;;;3.06;62.78
30073;BME280;16897;52.422;13.678;2023-01-26T16:31:51;101751.75;;;3.29;62.75
30073;BME280;16897;52.422;13.678;2023-01-26T16:35:53;101737.22;;;3.17;62.64
30073;BME280;16897;52.422;13.678;2023-01-26T16:39:55;101708.03;;;3.07;62.71
30073;BME280;16897;52.422;13.678;2023-01-26T16:43:59;101673.78;;;2.92;62.78
30073;BME280;16897;52.422;13.678;2023-01-26T16:48:01;101690.06;;;2.98;62.76
30073;BME280;16897;52.422;13.678;2023-01-26T16:52:02;101709.78;;;3.08;62.89
30073;BME280;16897;52.422;13.678;2023-01-26T16:56:07;101736.28;;;3.26;62.67
30073;BME280;16897;52.422;13.678;2023-01-26T17:00:18;101791.09;;;3.55;62.80
30073;BME280;16897;52.422;13.678;2023-01-26T17:04:20;101754.28;;;3.35;62.79
30073;BME280;16897;52.422;13.678;2023-01-26T17:08:24;101697.78;;;3.01;62.77
30073;BME280;16897;52.422;13.678;2023-01-26T17:12:26;101720.91;;;3.10;62.75
30073;BME280;16897;52.422;13.678;2023-01-26T17:16:27;101720.09;;;3.08;62.82
30073;BME280;16897;52.422;13.678;2023-01-26T17:20:32;101724.41;;;3.05;62.78
30073;BME280;16897;52.422;13.678;2023-01-26T17:25:15;101787.75;;;3.46;62.66
30073;BME280;16897;52.422;13.678;2023-01-26T17:29:44;101774.00;;;3.44;62.82
30073;BME280;16897;52.422;13.678;2023-01-26T17:33:50;101679.84;;;2.89;62.88
30073;BME280;16897;52.422;13.678;2023-01-26T17:37:53;101701.28;;;2.94;62.70
30073;BME280;16897;52.422;13.678;2023-01-26T17:42:06;101732.94;;;3.13;62.70
30073;BME280;16897;52.422;13.678;2023-01-26T17:46:23;101699.56;;;2.95;62.63
30073;BME280;16897;52.422;13.678;2023-01-26T17:50:31;101719.28;;;3.03;62.60
30073;BME280;16897;52.422;13.678;2023-01-26T17:54:39;101685.03;;;2.84;62.59
30073;BME280;16897;52.422;13.678;2023-01-26T17:58:41;101721.88;;;3.00;62.54
30073;BME280;16897;52.422;13.678;2023-01-26T18:02:43;101798.03;;;3.50;62.70
30073;BME280;16897;52.422;13.678;2023-01-26T18:06:48;101706.50;;;2.90;62.65
30073;BME280;16897;52.422;13.678;2023-01-26T18:10:59;101760.41;;;3.23;62.77
30073;BME280;16897;52.422;13.678;2023-01-26T18:15:36;101688.53;;;2.76;62.78
30073;BME280;16897;52.422;13.678;2023-01-26T18:19:46;101816.16;;;3.46;62.73
30073;BME280;16897;52.422;13.678;2023-01-26T18:24:24;101762.22;;;3.09;62.54
30073;BME280;16897;52.422;13.678;2023-01-26T18:28:33;101763.94;;;3.10;62.85
30073;BME280;16897;52.422;13.678;2023-01-26T18:32:42;101745.97;;;3.01;62.68
30073;BME280;16897;52.422;13.678;2023-01-26T18:37:09;101817.00;;;3.46;62.88
30073;BME280;16897;52.422;13.678;2023-01-26T18:41:24;101741.66;;;2.97;62.77
30073;BME280;16897;52.422;13.678;2023-01-26T18:46:19;101794.81;;;3.27;62.67
30073;BME280;16897;52.422;13.678;2023-01-26T18:51:04;101823.88;;;3.47;62.97
30073;BME280;16897;52.422;13.678;2023-01-26T18:55:11;101800.75;;;3.33;62.64
30073;BME280;16897;52.422;13.678;2023-01-26T18:59:39;101735.69;;;2.95;62.67
30073;BME280;16897;52.422;13.678;2023-01-26T19:03:43;101750.28;;;2.97;62.67
30073;BME280;16897;52.422;13.678;2023-01-26T19:07:50;101811.88;;;3.40;62.73
30073;BME280;16897;52.422;13.678;2023-01-26T19:11:52;101740.03;;;2.85;62.56
30073;BME280;16897;52.422;13.678;2023-01-26T19:16:31;101712.63;;;2.73;62.78
30073;BME280;16897;52.422;13.678;2023-01-26T19:20:33;101728.06;;;2.81;62.71
30073;BME280;16897;52.422;13.678;2023-01-26T19:24:45;101740.03;;;2.85;62.77
30073;BME280;16897;52.422;13.678;2023-01-26T19:29:12;101747.78;;;2.83;62.63
30073;BME280;16897;52.422;13.678;2023-01-26T19:33:16;101740.94;;;2.81;62.70
30073;BME280;16897;52.422;13.678;2023-01-26T19:42:20;101725.47;;;2.81;62.76
30073;BME280;16897;52.422;13.678;2023-01-26T19:46:25;101750.28;;;2.94;62.73
30073;BME280;16897;52.422;13.678;2023-01-26T19:50:29;101755.44;;;3.00;62.76
30073;BME280;16897;52.422;13.678;2023-01-26T19:54:30;101751.16;;;2.95;62.63
30073;BME280;16897;52.422;13.678;2023-01-26T19:58:33;101737.47;;;2.83;62.81
30073;BME280;16897;52.422;13.678;2023-01-26T20:02:37;101748.56;;;2.96;62.71
30073;BME280;16897;52.422;13.678;2023-01-26T20:06:42;101833.41;;;3.41;62.68
30073;BME280;16897;52.422;13.678;2023-01-26T20:10:52;101762.34;;;2.95;62.58
30073;BME280;16897;52.422;13.678;2023-01-26T20:14:54;101765.75;;;3.00;62.69
30073;BME280;16897;52.422;13.678;2023-01-26T20:18:57;101764.03;;;2.96;62.74
30073;BME280;16897;52.422;13.678;2023-01-26T20:23:12;101838.59;;;3.35;62.49
30073;BME280;16897;52.422;13.678;2023-01-26T20:27:21;101824.00;;;3.33;62.64
30073;BME280;16897;52.422;13.678;2023-01-26T20:31:26;101835.16;;;3.34;62.72
30073;BME280;16897;52.422;13.678;2023-01-26T20:35:32;101824.91;;;3.26;62.64
30073;BME280;16897;52.422;13.678;2023-01-26T20:39:47;101741.84;;;2.74;62.62
30073;BME280;16897;52.422;13.678;2023-01-26T20:43:53;101729.84;;;2.68;62.59
30073;BME280;16897;52.422;13.678;2023-01-26T20:47:58;101722.09;;;2.71;62.79
30073;BME280;16897;52.422;13.678;2023-01-26T21:05:43;101758.06;;;2.93;62.57
30073;BME280;16897;52.422;13.678;2023-01-26T21:09:44;101745.19;;;2.90;62.84
30073;BME280;16897;52.422;13.678;2023-01-26T21:13:46;101801.69;;;3.25;62.65
30073;BME280;16897;52.422;13.678;2023-01-26T21:17:48;101758.03;;;2.97;62.67
30073;BME280;16897;52.422;13.678;2023-01-26T21:21:50;101743.41;;;2.96;62.53
30073;BME280;16897;52.422;13.678;2023-01-26T21:25:59;101749.44;;;2.94;62.72
30073;BME280;16897;52.422;13.678;2023-01-26T21:30:01;101780.28;;;3.09;62.82
30073;BME280;16897;52.422;13.678;2023-01-26T21:34:03;101756.31;;;2.98;62.78
30073;BME280;16897;52.422;13.678;2023-01-26T21:38:04;101748.53;;;2.99;62.68
30073;BME280;16897;52.422;13.678;2023-01-26T21:42:06;101755.44;;;2.97;62.49
30073;BME280;16897;52.422;13.678;2023-01-26T21:46:11;101758.84;;;3.01;62.72
30073;BME280;16897;52.422;13.678;2023-01-26T21:50:12;101748.50;;;3.02;62.72
30073;BME280;16897;52.422;13.678;2023-01-26T21:54:15;101750.25;;;3.03;62.78
30073;BME280;16897;52.422;13.678;2023-01-26T21:58:16;101745.13;;;2.94;62.75
30073;BME280;16897;52.422;13.678;2023-01-26T22:02:37;101726.28;;;2.87;62.71
30073;BME280;16897;52.422;13.678;2023-01-26T22:06:38;101835.09;;;3.45;62.50
30073;BME280;16897;52.422;13.678;2023-01-26T22:10:40;101759.72;;;2.97;62.65
30073;BME280;16897;52.422;13.678;2023-01-26T22:14:42;101793.13;;;3.20;62.69
30073;BME280;16897;52.422;13.678;2023-01-26T22:18:43;101836.84;;;3.41;62.77
30073;BME280;16897;52.422;13.678;2023-01-26T22:22:46;101758.06;;;2.93;62.67
30073;BME280;16897;52.422;13.678;2023-01-26T22:26:47;101762.31;;;2.98;62.79
30073;BME280;16897;52.422;13.678;2023-01-26T22:30:49;101809.44;;;3.25;62.64
30073;BME280;16897;52.422;13.678;2023-01-26T22:34:51;101764.88;;;2.98;62.73
30073;BME280;16897;52.422;13.678;2023-01-26T22:38:53;101739.19;;;2.84;62.72
30073;BME280;16897;52.422;13.678;2023-01-26T22:42:54;101788.00;;;3.12;62.63
30073;BME280;16897;52.422;13.678;2023-01-26T22:46:56;101803.41;;;3.21;62.83
30073;BME280;16897;52.422;13.678;2023-01-26T22:51:04;101764.88;;;3.03;62.74
30073;BME280;16897;52.422;13.678;2023-01-26T22:55:07;101750.34;;;2.88;62.79
30073;BME280;16897;52.422;13.678;2023-01-26T22:59:08;101782.00;;;3.10;62.87
30073;BME280;16897;52.422;13.678;2023-01-26T23:03:10;101769.13;;;3.07;62.73
30073;BME280;16897;52.422;13.678;2023-01-26T23:07:11;101830.84;;;3.39;62.62
30073;BME280;16897;52.422;13.678;2023-01-26T23:11:19;101729.72;;;2.85;62.95
30073;BME280;16897;52.422;13.678;2023-01-26T23:15:21;101763.97;;;3.08;62.74
30073;BME280;16897;52.422;13.678;2023-01-26T23:19:23;101746.81;;;3.01;62.83
30073;BME280;16897;52.422;13.678;2023-01-26T23:23:26;101733.94;;;3.00;62.67
30073;BME280;16897;52.422;13.678;2023-01-26T23:27:28;101738.22;;;3.01;62.74
30073;BME280;16897;52.422;13.678;2023-01-26T23:31:29;101721.09;;;2.92;62.73
30073;BME280;16897;52.422;13.678;2023-01-26T23:35:32;101715.97;;;2.84;62.78
30073;BME280;16897;52.422;13.678;2023-01-26T23:39:34;101727.94;;;2.93;62.86
30073;BME280;16897;52.422;13.678;2023-01-26T23:43:35;101741.63;;;3.04;62.66
30073;BME280;16897;52.422;13.678;2023-01-26T23:47:37;101754.53;;;3.06;62.95
30073;BME280;16897;52.422;13.678;2023-01-26T23:51:39;101788.72;;;3.31;62.98
30073;BME280;16897;52.422;13.678;2023-01-26T23:56:02;101822.16;;;3.49;62.97
